AXM452 WMKK-WAHS
Flight info
| Callsign | AXM452 |
|---|---|
| Flight time | 2h 6m |
| Altitude | 35000 |
| Route | RUSBU2C RUSBU Y511 TOPOR A464 TPG DCT RAFIS |
| Aircraft | A321/M-SDE3FGHIRWY/LB1 |
Departure
| Time | 2026-05-06 04:04 |
|---|---|
| Airport | Kuala Lumpur International Airport (WMKK) |
Arrival
| Time | 2026-05-06 06:10 |
|---|---|
| Airport | Jenderal Ahmad Yani Airport (WAHS) |
| Time | Latitude | Longitude | Altitude | Speed | Heading |
|---|---|---|---|---|---|
| 2026-05-06 03:28 | 2.74258 | 101.69199 | 41 ft | 0 kts | 145° |
| 2026-05-06 03:50 | 2.74262 | 101.69197 | 41 ft | 2 kts | 145° |
| 2026-05-06 03:50 | 2.74274 | 101.69188 | 40 ft | 2 kts | 145° |
| 2026-05-06 03:51 | 2.74287 | 101.69179 | 40 ft | 2 kts | 145° |
| 2026-05-06 03:51 | 2.74299 | 101.69170 | 39 ft | 2 kts | 145° |
| 2026-05-06 03:51 | 2.74313 | 101.69163 | 38 ft | 2 kts | 170° |
| 2026-05-06 03:51 | 2.74329 | 101.69163 | 38 ft | 2 kts | 191° |
| 2026-05-06 03:52 | 2.74343 | 101.69168 | 38 ft | 2 kts | 214° |
| 2026-05-06 03:52 | 2.74353 | 101.69177 | 38 ft | 0 kts | 233° |
| 2026-05-06 03:52 | 2.74356 | 101.69183 | 38 ft | 1 kts | 236° |
| 2026-05-06 03:52 | 2.74357 | 101.69183 | 38 ft | 0 kts | 236° |
| 2026-05-06 03:57 | 2.74356 | 101.69181 | 38 ft | 1 kts | 236° |
| 2026-05-06 03:57 | 2.74347 | 101.69168 | 38 ft | 3 kts | 236° |
| 2026-05-06 03:57 | 2.74328 | 101.69140 | 38 ft | 6 kts | 237° |
| 2026-05-06 03:57 | 2.74299 | 101.69096 | 37 ft | 8 kts | 234° |
| 2026-05-06 03:58 | 2.74257 | 101.69038 | 36 ft | 11 kts | 235° |
| 2026-05-06 03:58 | 2.74209 | 101.68968 | 36 ft | 13 kts | 235° |
| 2026-05-06 03:58 | 2.74153 | 101.68884 | 36 ft | 14 kts | 238° |
| 2026-05-06 03:58 | 2.74093 | 101.68793 | 35 ft | 16 kts | 233° |
| 2026-05-06 03:59 | 2.74026 | 101.68700 | 35 ft | 16 kts | 242° |
| 2026-05-06 03:59 | 2.73961 | 101.68600 | 35 ft | 17 kts | 237° |
| 2026-05-06 03:59 | 2.73892 | 101.68495 | 35 ft | 18 kts | 237° |
| 2026-05-06 03:59 | 2.73816 | 101.68388 | 35 ft | 18 kts | 234° |
| 2026-05-06 04:00 | 2.73739 | 101.68277 | 36 ft | 18 kts | 235° |
| 2026-05-06 04:00 | 2.73686 | 101.68166 | 39 ft | 17 kts | 264° |
| 2026-05-06 04:00 | 2.73672 | 101.68070 | 41 ft | 12 kts | 286° |
| 2026-05-06 04:00 | 2.73737 | 101.68008 | 42 ft | 13 kts | 326° |
| 2026-05-06 04:01 | 2.73815 | 101.67956 | 43 ft | 13 kts | 326° |
| 2026-05-06 04:01 | 2.73884 | 101.67905 | 44 ft | 9 kts | 307° |
| 2026-05-06 04:01 | 2.73881 | 101.67850 | 46 ft | 8 kts | 222° |
| 2026-05-06 04:01 | 2.73845 | 101.67817 | 49 ft | 5 kts | 224° |
| 2026-05-06 04:02 | 2.73823 | 101.67796 | 50 ft | 3 kts | 225° |
| 2026-05-06 04:02 | 2.73797 | 101.67783 | 50 ft | 6 kts | 171° |
| 2026-05-06 04:02 | 2.73755 | 101.67792 | 48 ft | 4 kts | 149° |
| 2026-05-06 04:02 | 2.73726 | 101.67812 | 46 ft | 0 kts | 144° |
| 2026-05-06 04:03 | 2.73723 | 101.67815 | 46 ft | 2 kts | 144° |
| 2026-05-06 04:03 | 2.73597 | 101.67904 | 42 ft | 56 kts | 143° |
| 2026-05-06 04:03 | 2.73055 | 101.68266 | 38 ft | 123 kts | 144° |
| 2026-05-06 04:03 | 2.72168 | 101.68861 | 39 ft | 175 kts | 143° |
| 2026-05-06 04:04 | 2.71101 | 101.69578 | 480 ft | 181 kts | 144° |
| 2026-05-06 04:04 | 2.70077 | 101.70264 | 1126 ft | 179 kts | 145° |
| 2026-05-06 04:04 | 2.69030 | 101.70963 | 1696 ft | 183 kts | 145° |
| 2026-05-06 04:04 | 2.67923 | 101.71706 | 2055 ft | 199 kts | 143° |
| 2026-05-06 04:05 | 2.66733 | 101.72533 | 2440 ft | 215 kts | 144° |
| 2026-05-06 04:05 | 2.65442 | 101.73390 | 2835 ft | 231 kts | 144° |
| 2026-05-06 04:05 | 2.64046 | 101.74314 | 3260 ft | 249 kts | 145° |
| 2026-05-06 04:05 | 2.62539 | 101.75315 | 3703 ft | 266 kts | 145° |
| 2026-05-06 04:06 | 2.60974 | 101.76365 | 4341 ft | 273 kts | 143° |
| 2026-05-06 04:06 | 2.59502 | 101.77604 | 5120 ft | 275 kts | 133° |
| 2026-05-06 04:06 | 2.58248 | 101.79044 | 5861 ft | 277 kts | 128° |
| 2026-05-06 04:06 | 2.57052 | 101.80575 | 6587 ft | 280 kts | 126° |
| 2026-05-06 04:07 | 2.55875 | 101.82103 | 7323 ft | 282 kts | 127° |
| 2026-05-06 04:07 | 2.54675 | 101.83664 | 8051 ft | 285 kts | 126° |
| 2026-05-06 04:07 | 2.53459 | 101.85239 | 8788 ft | 288 kts | 126° |
| 2026-05-06 04:07 | 2.52231 | 101.86827 | 9499 ft | 291 kts | 126° |
| 2026-05-06 04:08 | 2.50978 | 101.88444 | 10202 ft | 293 kts | 126° |
| 2026-05-06 04:08 | 2.49711 | 101.90080 | 10673 ft | 305 kts | 126° |
| 2026-05-06 04:08 | 2.48353 | 101.91833 | 10975 ft | 322 kts | 126° |
| 2026-05-06 04:08 | 2.46912 | 101.93692 | 11295 ft | 337 kts | 126° |
| 2026-05-06 04:09 | 2.45453 | 101.95569 | 11848 ft | 343 kts | 126° |
| 2026-05-06 04:09 | 2.43985 | 101.97459 | 12483 ft | 346 kts | 126° |
| 2026-05-06 04:09 | 2.42470 | 101.99406 | 13114 ft | 348 kts | 126° |
| 2026-05-06 04:09 | 2.40961 | 102.01351 | 13709 ft | 352 kts | 126° |
| 2026-05-06 04:10 | 2.39453 | 102.03294 | 14300 ft | 354 kts | 126° |
| 2026-05-06 04:10 | 2.37939 | 102.05243 | 14857 ft | 357 kts | 126° |
| 2026-05-06 04:10 | 2.36404 | 102.07219 | 15420 ft | 360 kts | 126° |
| 2026-05-06 04:10 | 2.34848 | 102.09223 | 15974 ft | 362 kts | 125° |
| 2026-05-06 04:11 | 2.33278 | 102.11246 | 16502 ft | 364 kts | 126° |
| 2026-05-06 04:11 | 2.31715 | 102.13261 | 16979 ft | 368 kts | 126° |
| 2026-05-06 04:11 | 2.30109 | 102.15327 | 17484 ft | 370 kts | 126° |
| 2026-05-06 04:11 | 2.28516 | 102.17379 | 17983 ft | 373 kts | 126° |
| 2026-05-06 04:12 | 2.26928 | 102.19423 | 18451 ft | 375 kts | 126° |
| 2026-05-06 04:12 | 2.25320 | 102.21491 | 18916 ft | 378 kts | 126° |
| 2026-05-06 04:12 | 2.23682 | 102.23601 | 19373 ft | 381 kts | 126° |
| 2026-05-06 04:12 | 2.22056 | 102.25694 | 19813 ft | 384 kts | 126° |
| 2026-05-06 04:13 | 2.20404 | 102.27822 | 20262 ft | 386 kts | 126° |
| 2026-05-06 04:13 | 2.18738 | 102.29968 | 20693 ft | 389 kts | 126° |
| 2026-05-06 04:13 | 2.17060 | 102.32129 | 21113 ft | 392 kts | 126° |
| 2026-05-06 04:13 | 2.15368 | 102.34309 | 21522 ft | 395 kts | 126° |
| 2026-05-06 04:14 | 2.13665 | 102.36503 | 21921 ft | 397 kts | 126° |
| 2026-05-06 04:14 | 2.11981 | 102.38670 | 22317 ft | 400 kts | 126° |
| 2026-05-06 04:14 | 2.10326 | 102.40801 | 22705 ft | 402 kts | 126° |
| 2026-05-06 04:14 | 2.08612 | 102.43012 | 23103 ft | 404 kts | 126° |
| 2026-05-06 04:15 | 2.06886 | 102.45236 | 23495 ft | 406 kts | 126° |
| 2026-05-06 04:15 | 2.05149 | 102.47474 | 23884 ft | 408 kts | 126° |
| 2026-05-06 04:15 | 2.03410 | 102.49713 | 24238 ft | 410 kts | 126° |
| 2026-05-06 04:15 | 2.01658 | 102.51976 | 24588 ft | 413 kts | 126° |
| 2026-05-06 04:16 | 1.99906 | 102.54287 | 24947 ft | 414 kts | 126° |
| 2026-05-06 04:16 | 1.98165 | 102.56602 | 25290 ft | 416 kts | 125° |
| 2026-05-06 04:16 | 1.96417 | 102.58928 | 25627 ft | 418 kts | 125° |
| 2026-05-06 04:16 | 1.94651 | 102.61279 | 25963 ft | 420 kts | 125° |
| 2026-05-06 04:17 | 1.92869 | 102.63651 | 26272 ft | 422 kts | 125° |
| 2026-05-06 04:17 | 1.91103 | 102.66000 | 26582 ft | 424 kts | 125° |
| 2026-05-06 04:17 | 1.89299 | 102.68407 | 26896 ft | 426 kts | 125° |
| 2026-05-06 04:17 | 1.87505 | 102.70785 | 27185 ft | 428 kts | 126° |
| 2026-05-06 04:18 | 1.85688 | 102.73189 | 27480 ft | 429 kts | 126° |
| 2026-05-06 04:18 | 1.83896 | 102.75562 | 27783 ft | 431 kts | 126° |
| 2026-05-06 04:18 | 1.82070 | 102.77985 | 28055 ft | 433 kts | 126° |
| 2026-05-06 04:18 | 1.80265 | 102.80383 | 28329 ft | 434 kts | 126° |
| 2026-05-06 04:19 | 1.78441 | 102.82803 | 28610 ft | 436 kts | 126° |
| 2026-05-06 04:19 | 1.76619 | 102.85223 | 28895 ft | 437 kts | 126° |
| 2026-05-06 04:19 | 1.74836 | 102.87683 | 29157 ft | 438 kts | 123° |
| 2026-05-06 04:19 | 1.73165 | 102.90255 | 29424 ft | 440 kts | 120° |
| 2026-05-06 04:20 | 1.71640 | 102.92905 | 29674 ft | 441 kts | 117° |
| 2026-05-06 04:20 | 1.70209 | 102.95573 | 29911 ft | 443 kts | 117° |
| 2026-05-06 04:20 | 1.68763 | 102.98299 | 30140 ft | 444 kts | 117° |
| 2026-05-06 04:20 | 1.67302 | 103.01056 | 30364 ft | 446 kts | 117° |
| 2026-05-06 04:21 | 1.65851 | 103.03790 | 30607 ft | 448 kts | 117° |
| 2026-05-06 04:21 | 1.64397 | 103.06525 | 30921 ft | 447 kts | 117° |
| 2026-05-06 04:21 | 1.62939 | 103.09263 | 31241 ft | 446 kts | 117° |
| 2026-05-06 04:21 | 1.61477 | 103.12007 | 31538 ft | 446 kts | 117° |
| 2026-05-06 04:22 | 1.60022 | 103.14740 | 31799 ft | 446 kts | 117° |
| 2026-05-06 04:22 | 1.58582 | 103.17451 | 32033 ft | 446 kts | 117° |
| 2026-05-06 04:22 | 1.57118 | 103.20211 | 32257 ft | 447 kts | 117° |
| 2026-05-06 04:23 | 1.54202 | 103.25716 | 32758 ft | 448 kts | 117° |
| 2026-05-06 04:23 | 1.52750 | 103.28457 | 33061 ft | 447 kts | 117° |
| 2026-05-06 04:23 | 1.51307 | 103.31180 | 33363 ft | 446 kts | 117° |
| 2026-05-06 04:23 | 1.49846 | 103.33936 | 33617 ft | 447 kts | 117° |
| 2026-05-06 04:24 | 1.48359 | 103.36697 | 33828 ft | 448 kts | 118° |
| 2026-05-06 04:24 | 1.46873 | 103.39418 | 34040 ft | 450 kts | 118° |
| 2026-05-06 04:24 | 1.45379 | 103.42157 | 34254 ft | 450 kts | 117° |
| 2026-05-06 04:24 | 1.43900 | 103.44915 | 34464 ft | 451 kts | 117° |
| 2026-05-06 04:25 | 1.42427 | 103.47687 | 34676 ft | 452 kts | 117° |
| 2026-05-06 04:25 | 1.40939 | 103.50496 | 34863 ft | 453 kts | 117° |
| 2026-05-06 04:25 | 1.39474 | 103.53262 | 34865 ft | 454 kts | 117° |
| 2026-05-06 04:26 | 1.36509 | 103.58858 | 34877 ft | 454 kts | 117° |
| 2026-05-06 04:26 | 1.33553 | 103.64413 | 34884 ft | 453 kts | 117° |
| 2026-05-06 04:27 | 1.30570 | 103.69962 | 34887 ft | 453 kts | 117° |
| 2026-05-06 04:27 | 1.27609 | 103.75473 | 34888 ft | 454 kts | 117° |
| 2026-05-06 04:28 | 1.24605 | 103.81058 | 34889 ft | 453 kts | 117° |
| 2026-05-06 04:28 | 1.21637 | 103.86703 | 34889 ft | 453 kts | 115° |
| 2026-05-06 04:29 | 1.18877 | 103.92398 | 34889 ft | 453 kts | 115° |
| 2026-05-06 04:29 | 1.16111 | 103.98132 | 34889 ft | 453 kts | 115° |
| 2026-05-06 04:30 | 1.13371 | 104.03805 | 34890 ft | 453 kts | 115° |
| 2026-05-06 04:30 | 1.10610 | 104.09523 | 34887 ft | 453 kts | 115° |
| 2026-05-06 04:31 | 1.07867 | 104.15198 | 34888 ft | 453 kts | 115° |
| 2026-05-06 04:31 | 1.05138 | 104.20844 | 34888 ft | 452 kts | 115° |
| 2026-05-06 04:32 | 1.02410 | 104.26489 | 34889 ft | 452 kts | 115° |
| 2026-05-06 04:32 | 0.99674 | 104.32153 | 34889 ft | 452 kts | 115° |
| 2026-05-06 04:33 | 0.96940 | 104.37817 | 34891 ft | 452 kts | 115° |
| 2026-05-06 04:33 | 0.94208 | 104.43475 | 34892 ft | 453 kts | 115° |
| 2026-05-06 04:34 | 0.91331 | 104.49065 | 34895 ft | 452 kts | 119° |
| 2026-05-06 04:34 | 0.87864 | 104.54338 | 34893 ft | 453 kts | 126° |
| 2026-05-06 04:35 | 0.83927 | 104.59219 | 34892 ft | 454 kts | 128° |
| 2026-05-06 04:35 | 0.79887 | 104.64095 | 34883 ft | 453 kts | 128° |
| 2026-05-06 04:36 | 0.75874 | 104.68978 | 34874 ft | 454 kts | 128° |
| 2026-05-06 04:36 | 0.71862 | 104.73876 | 34874 ft | 454 kts | 128° |
| 2026-05-06 04:37 | 0.67884 | 104.78725 | 34877 ft | 454 kts | 128° |
| 2026-05-06 04:37 | 0.63866 | 104.83615 | 34874 ft | 454 kts | 128° |
| 2026-05-06 04:38 | 0.59864 | 104.88482 | 34868 ft | 454 kts | 128° |
| 2026-05-06 04:38 | 0.55835 | 104.93383 | 34867 ft | 454 kts | 128° |
| 2026-05-06 04:39 | 0.51793 | 104.98299 | 34872 ft | 455 kts | 128° |
| 2026-05-06 04:39 | 0.47769 | 105.03194 | 34875 ft | 455 kts | 128° |
| 2026-05-06 04:40 | 0.43756 | 105.08073 | 34874 ft | 455 kts | 128° |
| 2026-05-06 04:40 | 0.39706 | 105.12999 | 34874 ft | 455 kts | 128° |
| 2026-05-06 04:41 | 0.35651 | 105.17930 | 34873 ft | 454 kts | 128° |
| 2026-05-06 04:41 | 0.31648 | 105.22800 | 34873 ft | 455 kts | 128° |
| 2026-05-06 04:42 | 0.27644 | 105.27669 | 34873 ft | 455 kts | 128° |
| 2026-05-06 04:42 | 0.23595 | 105.32592 | 34874 ft | 455 kts | 128° |
| 2026-05-06 04:43 | 0.19566 | 105.37493 | 34872 ft | 455 kts | 128° |
| 2026-05-06 04:43 | 0.15508 | 105.42428 | 34873 ft | 454 kts | 128° |
| 2026-05-06 04:44 | 0.11463 | 105.47347 | 34872 ft | 454 kts | 128° |
| 2026-05-06 04:44 | 0.07408 | 105.52280 | 34871 ft | 455 kts | 128° |
| 2026-05-06 04:45 | 0.03364 | 105.57195 | 34872 ft | 455 kts | 128° |
| 2026-05-06 04:45 | -0.00719 | 105.62160 | 34871 ft | 455 kts | 128° |
| 2026-05-06 04:46 | -0.04704 | 105.67013 | 34871 ft | 455 kts | 128° |
| 2026-05-06 04:46 | -0.08714 | 105.71919 | 34871 ft | 455 kts | 128° |
| 2026-05-06 04:47 | -0.12743 | 105.76817 | 34869 ft | 455 kts | 128° |
| 2026-05-06 04:47 | -0.16804 | 105.81728 | 34858 ft | 455 kts | 128° |
| 2026-05-06 04:48 | -0.20817 | 105.86594 | 34853 ft | 455 kts | 128° |
| 2026-05-06 04:48 | -0.22987 | 105.89230 | 34850 ft | 455 kts | 128° |
| 2026-05-06 04:49 | -0.24311 | 105.90838 | 34850 ft | 455 kts | 128° |
| 2026-05-06 04:49 | -0.28358 | 105.95757 | 34849 ft | 455 kts | 128° |
| 2026-05-06 04:50 | -0.32381 | 106.00649 | 34852 ft | 455 kts | 128° |
| 2026-05-06 04:50 | -0.36407 | 106.05547 | 34855 ft | 455 kts | 128° |
| 2026-05-06 04:51 | -0.40457 | 106.10474 | 34855 ft | 455 kts | 128° |
| 2026-05-06 04:51 | -0.43257 | 106.13879 | 34853 ft | 455 kts | 128° |
| 2026-05-06 04:52 | -0.44731 | 106.15672 | 34855 ft | 455 kts | 128° |
| 2026-05-06 04:52 | -0.48766 | 106.20579 | 34853 ft | 455 kts | 128° |
| 2026-05-06 04:53 | -0.52812 | 106.25499 | 34856 ft | 455 kts | 128° |
| 2026-05-06 04:53 | -0.56861 | 106.30424 | 34866 ft | 455 kts | 128° |
| 2026-05-06 04:54 | -0.60886 | 106.35319 | 34869 ft | 455 kts | 128° |
| 2026-05-06 04:54 | -0.64927 | 106.40234 | 34865 ft | 455 kts | 128° |
| 2026-05-06 04:55 | -0.68944 | 106.45120 | 34864 ft | 454 kts | 128° |
| 2026-05-06 04:55 | -0.72967 | 106.50015 | 34859 ft | 454 kts | 128° |
| 2026-05-06 04:56 | -0.77014 | 106.54938 | 34858 ft | 454 kts | 128° |
| 2026-05-06 04:56 | -0.81065 | 106.59866 | 34861 ft | 454 kts | 128° |
| 2026-05-06 04:57 | -0.85114 | 106.64783 | 34866 ft | 454 kts | 128° |
| 2026-05-06 04:57 | -0.89122 | 106.69691 | 34861 ft | 454 kts | 128° |
| 2026-05-06 04:58 | -0.92497 | 106.73827 | 34863 ft | 454 kts | 128° |
| 2026-05-06 04:58 | -0.95182 | 106.77104 | 34858 ft | 453 kts | 128° |
| 2026-05-06 04:59 | -0.99193 | 106.81992 | 34860 ft | 453 kts | 128° |
| 2026-05-06 04:59 | -1.03196 | 106.86864 | 34855 ft | 453 kts | 128° |
| 2026-05-06 05:00 | -1.07188 | 106.91722 | 34858 ft | 453 kts | 128° |
| 2026-05-06 05:00 | -1.11190 | 106.96587 | 34851 ft | 453 kts | 128° |
| 2026-05-06 05:01 | -1.15235 | 107.01472 | 34853 ft | 453 kts | 128° |
| 2026-05-06 05:01 | -1.19289 | 107.06387 | 34851 ft | 459 kts | 128° |
| 2026-05-06 05:02 | -1.23364 | 107.11338 | 34852 ft | 455 kts | 128° |
| 2026-05-06 05:02 | -1.27447 | 107.16306 | 34851 ft | 454 kts | 128° |
| 2026-05-06 05:03 | -1.31455 | 107.21183 | 34852 ft | 454 kts | 128° |
| 2026-05-06 05:03 | -1.35519 | 107.26128 | 34851 ft | 454 kts | 128° |
| 2026-05-06 05:04 | -1.39526 | 107.31007 | 34852 ft | 454 kts | 128° |
| 2026-05-06 05:04 | -1.43538 | 107.35892 | 34851 ft | 454 kts | 128° |
| 2026-05-06 05:05 | -1.47553 | 107.40778 | 34852 ft | 454 kts | 128° |
| 2026-05-06 05:05 | -1.51569 | 107.45670 | 34852 ft | 454 kts | 128° |
| 2026-05-06 05:06 | -1.55568 | 107.50537 | 34851 ft | 453 kts | 128° |
| 2026-05-06 05:06 | -1.59564 | 107.55404 | 34851 ft | 453 kts | 128° |
| 2026-05-06 05:07 | -1.62888 | 107.59452 | 34852 ft | 453 kts | 128° |
| 2026-05-06 05:07 | -1.64320 | 107.61196 | 34851 ft | 453 kts | 128° |
| 2026-05-06 05:08 | -1.68328 | 107.66081 | 34852 ft | 453 kts | 128° |
| 2026-05-06 05:08 | -1.72352 | 107.71011 | 34850 ft | 453 kts | 128° |
| 2026-05-06 05:09 | -1.76353 | 107.75901 | 34852 ft | 453 kts | 128° |
| 2026-05-06 05:09 | -1.80369 | 107.80800 | 34849 ft | 453 kts | 128° |
| 2026-05-06 05:10 | -1.84395 | 107.85706 | 34843 ft | 452 kts | 128° |
| 2026-05-06 05:10 | -1.88365 | 107.90543 | 34836 ft | 451 kts | 128° |
| 2026-05-06 05:11 | -1.92373 | 107.95428 | 34834 ft | 452 kts | 128° |
| 2026-05-06 05:11 | -1.96388 | 108.00320 | 34834 ft | 451 kts | 128° |
| 2026-05-06 05:12 | -2.00365 | 108.05166 | 34844 ft | 452 kts | 128° |
| 2026-05-06 05:12 | -2.04358 | 108.10031 | 34851 ft | 451 kts | 128° |
| 2026-05-06 05:13 | -2.08360 | 108.14909 | 34851 ft | 451 kts | 128° |
| 2026-05-06 05:13 | -2.12381 | 108.19795 | 34852 ft | 452 kts | 129° |
| 2026-05-06 05:14 | -2.16396 | 108.24654 | 34853 ft | 451 kts | 128° |
| 2026-05-06 05:14 | -2.20389 | 108.29510 | 34850 ft | 451 kts | 128° |
| 2026-05-06 05:15 | -2.24373 | 108.34364 | 34840 ft | 450 kts | 128° |
| 2026-05-06 05:15 | -2.28378 | 108.39246 | 34833 ft | 450 kts | 128° |
| 2026-05-06 05:16 | -2.32392 | 108.44141 | 34832 ft | 451 kts | 128° |
| 2026-05-06 05:16 | -2.36371 | 108.48994 | 34832 ft | 452 kts | 128° |
| 2026-05-06 05:17 | -2.40367 | 108.53869 | 34832 ft | 451 kts | 128° |
| 2026-05-06 05:17 | -2.44381 | 108.58765 | 34833 ft | 451 kts | 128° |
| 2026-05-06 05:18 | -2.48353 | 108.63612 | 34840 ft | 450 kts | 128° |
| 2026-05-06 05:18 | -2.52322 | 108.68472 | 34845 ft | 451 kts | 128° |
| 2026-05-06 05:19 | -2.56304 | 108.73356 | 34850 ft | 451 kts | 128° |
| 2026-05-06 05:19 | -2.60258 | 108.78191 | 34852 ft | 451 kts | 128° |
| 2026-05-06 05:20 | -2.64256 | 108.83073 | 34852 ft | 451 kts | 128° |
| 2026-05-06 05:20 | -2.68222 | 108.87917 | 34852 ft | 451 kts | 128° |
| 2026-05-06 05:21 | -2.72192 | 108.92765 | 34853 ft | 451 kts | 128° |
| 2026-05-06 05:21 | -2.76169 | 108.97621 | 34853 ft | 451 kts | 128° |
| 2026-05-06 05:22 | -2.80216 | 109.02564 | 34852 ft | 451 kts | 128° |
| 2026-05-06 05:22 | -2.84270 | 109.07407 | 34848 ft | 452 kts | 132° |
| 2026-05-06 05:23 | -2.89025 | 109.11629 | 34852 ft | 452 kts | 143° |
| 2026-05-06 05:23 | -2.97388 | 109.16067 | 34852 ft | 454 kts | 159° |
| 2026-05-06 05:24 | -3.03456 | 109.17970 | 34854 ft | 454 kts | 162° |
| 2026-05-06 05:24 | -3.09577 | 109.19799 | 34853 ft | 454 kts | 162° |
| 2026-05-06 05:25 | -3.15675 | 109.21628 | 34852 ft | 454 kts | 162° |
| 2026-05-06 05:25 | -3.21788 | 109.23470 | 34851 ft | 454 kts | 161° |
| 2026-05-06 05:26 | -3.26989 | 109.25045 | 34849 ft | 454 kts | 162° |
| 2026-05-06 05:26 | -3.33043 | 109.26881 | 34848 ft | 454 kts | 161° |
| 2026-05-06 05:27 | -3.39129 | 109.28729 | 34848 ft | 454 kts | 162° |
| 2026-05-06 05:27 | -3.43832 | 109.30157 | 34845 ft | 454 kts | 161° |
| 2026-05-06 05:28 | -3.49923 | 109.32004 | 34842 ft | 455 kts | 161° |
| 2026-05-06 05:28 | -3.56032 | 109.33860 | 34842 ft | 454 kts | 161° |
| 2026-05-06 05:29 | -3.59845 | 109.35019 | 34845 ft | 455 kts | 161° |
| 2026-05-06 05:29 | -3.64014 | 109.36286 | 34845 ft | 455 kts | 161° |
| 2026-05-06 05:30 | -3.65302 | 109.36677 | 34845 ft | 455 kts | 161° |
| 2026-05-06 05:30 | -3.71444 | 109.38545 | 34844 ft | 455 kts | 161° |
| 2026-05-06 05:31 | -3.77507 | 109.40387 | 34846 ft | 455 kts | 161° |
| 2026-05-06 05:31 | -3.79228 | 109.40908 | 34846 ft | 455 kts | 161° |
| 2026-05-06 05:32 | -3.84152 | 109.42404 | 34839 ft | 455 kts | 161° |
| 2026-05-06 05:32 | -3.90242 | 109.44257 | 34834 ft | 455 kts | 161° |
| 2026-05-06 05:33 | -3.96379 | 109.46122 | 34839 ft | 456 kts | 161° |
| 2026-05-06 05:33 | -4.02493 | 109.47982 | 34841 ft | 456 kts | 161° |
| 2026-05-06 05:34 | -4.08604 | 109.49842 | 34836 ft | 457 kts | 161° |
| 2026-05-06 05:34 | -4.14755 | 109.51707 | 34836 ft | 457 kts | 161° |
| 2026-05-06 05:35 | -4.20879 | 109.53561 | 34844 ft | 457 kts | 161° |
| 2026-05-06 05:35 | -4.27063 | 109.55438 | 34849 ft | 458 kts | 161° |
| 2026-05-06 05:36 | -4.33218 | 109.57310 | 34841 ft | 458 kts | 161° |
| 2026-05-06 05:36 | -4.39321 | 109.59169 | 34834 ft | 458 kts | 161° |
| 2026-05-06 05:37 | -4.45434 | 109.61028 | 34643 ft | 453 kts | 161° |
| 2026-05-06 05:37 | -4.48468 | 109.61952 | 34075 ft | 450 kts | 161° |
| 2026-05-06 05:37 | -4.51501 | 109.62877 | 33341 ft | 449 kts | 161° |
| 2026-05-06 05:38 | -4.54522 | 109.63797 | 32582 ft | 448 kts | 161° |
| 2026-05-06 05:38 | -4.57519 | 109.64709 | 31804 ft | 450 kts | 161° |
| 2026-05-06 05:38 | -4.60555 | 109.65638 | 30975 ft | 452 kts | 161° |
| 2026-05-06 05:38 | -4.63600 | 109.66582 | 30122 ft | 455 kts | 161° |
| 2026-05-06 05:39 | -4.64653 | 109.66908 | 29841 ft | 455 kts | 160° |
| 2026-05-06 05:39 | -4.67037 | 109.67643 | 29358 ft | 453 kts | 160° |
| 2026-05-06 05:39 | -4.70053 | 109.68570 | 28854 ft | 447 kts | 161° |
| 2026-05-06 05:40 | -4.73025 | 109.69481 | 28295 ft | 443 kts | 160° |
| 2026-05-06 05:40 | -4.75979 | 109.70384 | 27729 ft | 440 kts | 160° |
| 2026-05-06 05:40 | -4.78881 | 109.71270 | 27169 ft | 436 kts | 160° |
| 2026-05-06 05:40 | -4.81784 | 109.72156 | 26613 ft | 433 kts | 161° |
| 2026-05-06 05:41 | -4.84646 | 109.73031 | 26068 ft | 430 kts | 160° |
| 2026-05-06 05:41 | -4.87529 | 109.73910 | 25522 ft | 427 kts | 160° |
| 2026-05-06 05:41 | -4.90408 | 109.74788 | 24972 ft | 424 kts | 161° |
| 2026-05-06 05:41 | -4.93211 | 109.75643 | 24439 ft | 421 kts | 161° |
| 2026-05-06 05:42 | -4.96009 | 109.76497 | 23908 ft | 418 kts | 161° |
| 2026-05-06 05:42 | -4.98804 | 109.77348 | 23389 ft | 415 kts | 161° |
| 2026-05-06 05:42 | -5.01562 | 109.78190 | 22891 ft | 412 kts | 161° |
| 2026-05-06 05:42 | -5.04312 | 109.79028 | 22393 ft | 409 kts | 161° |
| 2026-05-06 05:43 | -5.07025 | 109.79855 | 21909 ft | 406 kts | 161° |
| 2026-05-06 05:43 | -5.09717 | 109.80677 | 21431 ft | 403 kts | 161° |
| 2026-05-06 05:43 | -5.12398 | 109.81493 | 20952 ft | 400 kts | 161° |
| 2026-05-06 05:43 | -5.15079 | 109.82307 | 20477 ft | 397 kts | 161° |
| 2026-05-06 05:44 | -5.17720 | 109.83109 | 20001 ft | 395 kts | 161° |
| 2026-05-06 05:44 | -5.20381 | 109.83918 | 19513 ft | 392 kts | 161° |
| 2026-05-06 05:44 | -5.23027 | 109.84724 | 19028 ft | 389 kts | 161° |
| 2026-05-06 05:44 | -5.25668 | 109.85530 | 18540 ft | 387 kts | 161° |
| 2026-05-06 05:45 | -5.28238 | 109.86314 | 18067 ft | 384 kts | 161° |
| 2026-05-06 05:45 | -5.30817 | 109.87101 | 17600 ft | 381 kts | 161° |
| 2026-05-06 05:45 | -5.33349 | 109.87874 | 17139 ft | 378 kts | 161° |
| 2026-05-06 05:45 | -5.35865 | 109.88642 | 16680 ft | 375 kts | 161° |
| 2026-05-06 05:46 | -5.38355 | 109.89403 | 16234 ft | 372 kts | 161° |
| 2026-05-06 05:46 | -5.40829 | 109.90159 | 15783 ft | 369 kts | 161° |
| 2026-05-06 05:46 | -5.43274 | 109.90906 | 15329 ft | 366 kts | 161° |
| 2026-05-06 05:46 | -5.45733 | 109.91659 | 14871 ft | 363 kts | 161° |
| 2026-05-06 05:47 | -5.48151 | 109.92398 | 14419 ft | 359 kts | 161° |
| 2026-05-06 05:47 | -5.50534 | 109.93125 | 13969 ft | 356 kts | 161° |
| 2026-05-06 05:47 | -5.52899 | 109.93847 | 13517 ft | 354 kts | 162° |
| 2026-05-06 05:47 | -5.55244 | 109.94563 | 13062 ft | 351 kts | 161° |
| 2026-05-06 05:48 | -5.57573 | 109.95274 | 12611 ft | 348 kts | 162° |
| 2026-05-06 05:48 | -5.59884 | 109.95980 | 12160 ft | 345 kts | 161° |
| 2026-05-06 05:48 | -5.62185 | 109.96683 | 11884 ft | 341 kts | 161° |
| 2026-05-06 05:48 | -5.64490 | 109.97388 | 11843 ft | 343 kts | 161° |
| 2026-05-06 05:49 | -5.66798 | 109.98093 | 11839 ft | 343 kts | 161° |
| 2026-05-06 05:49 | -5.69114 | 109.98802 | 11838 ft | 343 kts | 161° |
| 2026-05-06 05:49 | -5.71412 | 109.99506 | 11836 ft | 343 kts | 162° |
| 2026-05-06 05:49 | -5.73700 | 110.00205 | 11836 ft | 343 kts | 162° |
| 2026-05-06 05:50 | -5.76001 | 110.00909 | 11835 ft | 343 kts | 162° |
| 2026-05-06 05:50 | -5.78301 | 110.01611 | 11836 ft | 344 kts | 162° |
| 2026-05-06 05:50 | -5.80618 | 110.02316 | 11837 ft | 344 kts | 162° |
| 2026-05-06 05:50 | -5.82904 | 110.03012 | 11835 ft | 344 kts | 162° |
| 2026-05-06 05:51 | -5.85214 | 110.03715 | 11818 ft | 344 kts | 162° |
| 2026-05-06 05:51 | -5.87512 | 110.04414 | 11574 ft | 343 kts | 161° |
| 2026-05-06 05:51 | -5.89808 | 110.05114 | 11337 ft | 341 kts | 161° |
| 2026-05-06 05:51 | -5.92106 | 110.05814 | 11098 ft | 340 kts | 161° |
| 2026-05-06 05:52 | -5.94377 | 110.06506 | 10860 ft | 339 kts | 161° |
| 2026-05-06 05:52 | -5.96651 | 110.07200 | 10624 ft | 337 kts | 161° |
| 2026-05-06 05:52 | -5.98892 | 110.07883 | 10347 ft | 331 kts | 161° |
| 2026-05-06 05:52 | -6.01115 | 110.08560 | 10026 ft | 325 kts | 161° |
| 2026-05-06 05:53 | -6.03234 | 110.09206 | 9737 ft | 317 kts | 161° |
| 2026-05-06 05:53 | -6.05333 | 110.09846 | 9604 ft | 305 kts | 161° |
| 2026-05-06 05:53 | -6.07321 | 110.10450 | 9478 ft | 292 kts | 161° |
| 2026-05-06 05:53 | -6.09254 | 110.11040 | 9362 ft | 290 kts | 161° |
| 2026-05-06 05:54 | -6.11197 | 110.11631 | 9236 ft | 290 kts | 161° |
| 2026-05-06 05:54 | -6.13126 | 110.12215 | 9113 ft | 290 kts | 161° |
| 2026-05-06 05:54 | -6.15055 | 110.12800 | 8992 ft | 289 kts | 161° |
| 2026-05-06 05:54 | -6.16993 | 110.13389 | 8877 ft | 289 kts | 161° |
| 2026-05-06 05:55 | -6.18932 | 110.13979 | 8759 ft | 289 kts | 161° |
| 2026-05-06 05:55 | -6.20846 | 110.14563 | 8643 ft | 288 kts | 161° |
| 2026-05-06 05:55 | -6.22785 | 110.15155 | 8516 ft | 287 kts | 161° |
| 2026-05-06 05:55 | -6.24711 | 110.15743 | 8398 ft | 286 kts | 161° |
| 2026-05-06 05:56 | -6.26611 | 110.16324 | 8277 ft | 286 kts | 161° |
| 2026-05-06 05:56 | -6.28521 | 110.16906 | 8155 ft | 285 kts | 161° |
| 2026-05-06 05:56 | -6.30408 | 110.17481 | 8039 ft | 285 kts | 161° |
| 2026-05-06 05:56 | -6.32338 | 110.18031 | 7920 ft | 285 kts | 167° |
| 2026-05-06 05:57 | -6.34315 | 110.18127 | 7801 ft | 287 kts | 184° |
| 2026-05-06 05:57 | -6.36279 | 110.17683 | 7682 ft | 289 kts | 195° |
| 2026-05-06 05:57 | -6.38195 | 110.17042 | 7560 ft | 289 kts | 197° |
| 2026-05-06 05:57 | -6.40108 | 110.16374 | 7439 ft | 288 kts | 197° |
| 2026-05-06 05:58 | -6.42014 | 110.15711 | 7324 ft | 288 kts | 197° |
| 2026-05-06 05:58 | -6.43932 | 110.15050 | 7204 ft | 287 kts | 197° |
| 2026-05-06 05:58 | -6.45859 | 110.14391 | 7081 ft | 287 kts | 197° |
| 2026-05-06 05:58 | -6.47741 | 110.13752 | 6962 ft | 287 kts | 197° |
| 2026-05-06 05:59 | -6.49678 | 110.13095 | 6837 ft | 286 kts | 197° |
| 2026-05-06 05:59 | -6.51574 | 110.12453 | 6716 ft | 285 kts | 197° |
| 2026-05-06 05:59 | -6.53465 | 110.11813 | 6598 ft | 284 kts | 197° |
| 2026-05-06 05:59 | -6.54171 | 110.11575 | 6553 ft | 283 kts | 197° |
| 2026-05-06 06:00 | -6.54905 | 110.11326 | 6504 ft | 283 kts | 197° |
| 2026-05-06 06:00 | -6.56232 | 110.10878 | 6417 ft | 282 kts | 197° |
| 2026-05-06 06:00 | -6.56457 | 110.10802 | 6403 ft | 282 kts | 197° |
| 2026-05-06 06:00 | -6.58326 | 110.10169 | 6283 ft | 281 kts | 197° |
| 2026-05-06 06:01 | -6.60203 | 110.09534 | 6168 ft | 281 kts | 197° |
| 2026-05-06 06:01 | -6.62061 | 110.08906 | 6047 ft | 281 kts | 197° |
| 2026-05-06 06:01 | -6.63079 | 110.08562 | 5982 ft | 280 kts | 197° |
| 2026-05-06 06:02 | -6.64866 | 110.07957 | 5856 ft | 280 kts | 197° |
| 2026-05-06 06:02 | -6.66714 | 110.07330 | 5710 ft | 280 kts | 197° |
| 2026-05-06 06:02 | -6.68072 | 110.06879 | 5587 ft | 279 kts | 194° |
| 2026-05-06 06:02 | -6.69989 | 110.06749 | 5366 ft | 273 kts | 165° |
| 2026-05-06 06:03 | -6.71642 | 110.07564 | 5111 ft | 265 kts | 137° |
| 2026-05-06 06:03 | -6.72880 | 110.08933 | 4839 ft | 261 kts | 128° |
| 2026-05-06 06:03 | -6.74038 | 110.10336 | 4544 ft | 259 kts | 128° |
| 2026-05-06 06:03 | -6.75189 | 110.11723 | 4249 ft | 258 kts | 128° |
| 2026-05-06 06:04 | -6.76344 | 110.13094 | 3961 ft | 256 kts | 129° |
| 2026-05-06 06:04 | -6.77512 | 110.14468 | 3664 ft | 255 kts | 129° |
| 2026-05-06 06:04 | -6.78669 | 110.15823 | 3368 ft | 253 kts | 129° |
| 2026-05-06 06:04 | -6.79798 | 110.17142 | 3233 ft | 243 kts | 129° |
| 2026-05-06 06:05 | -6.80876 | 110.18399 | 3192 ft | 234 kts | 129° |
| 2026-05-06 06:05 | -6.81952 | 110.19656 | 3143 ft | 234 kts | 128° |
| 2026-05-06 06:05 | -6.83024 | 110.20909 | 3031 ft | 233 kts | 129° |
| 2026-05-06 06:05 | -6.84103 | 110.22151 | 3023 ft | 234 kts | 130° |
| 2026-05-06 06:06 | -6.85196 | 110.23370 | 3020 ft | 231 kts | 130° |
| 2026-05-06 06:06 | -6.86254 | 110.24535 | 2851 ft | 224 kts | 129° |
| 2026-05-06 06:06 | -6.87290 | 110.25716 | 2565 ft | 222 kts | 128° |
| 2026-05-06 06:06 | -6.88290 | 110.26894 | 2310 ft | 217 kts | 128° |
| 2026-05-06 06:07 | -6.89228 | 110.28011 | 2170 ft | 195 kts | 127° |
| 2026-05-06 06:07 | -6.90076 | 110.29020 | 1879 ft | 181 kts | 127° |
| 2026-05-06 06:07 | -6.90862 | 110.29955 | 1623 ft | 169 kts | 127° |
| 2026-05-06 06:07 | -6.91592 | 110.30823 | 1387 ft | 157 kts | 127° |
| 2026-05-06 06:08 | -6.92298 | 110.31661 | 1193 ft | 156 kts | 127° |
| 2026-05-06 06:08 | -6.92884 | 110.32357 | 1022 ft | 156 kts | 127° |
| 2026-05-06 06:08 | -6.93586 | 110.33191 | 836 ft | 154 kts | 128° |
| 2026-05-06 06:08 | -6.94283 | 110.34016 | 633 ft | 154 kts | 127° |
| 2026-05-06 06:09 | -6.94987 | 110.34853 | 445 ft | 153 kts | 128° |
| 2026-05-06 06:09 | -6.95667 | 110.35672 | 243 ft | 153 kts | 127° |
| 2026-05-06 06:09 | -6.96355 | 110.36465 | 61 ft | 147 kts | 122° |
| 2026-05-06 06:09 | -6.96950 | 110.37204 | 54 ft | 121 kts | 133° |
| 2026-05-06 06:10 | -6.97397 | 110.37714 | 53 ft | 70 kts | 129° |
| 2026-05-06 06:10 | -6.97627 | 110.37997 | 54 ft | 20 kts | 132° |
| 2026-05-06 06:10 | -6.97671 | 110.38067 | 53 ft | 11 kts | 108° |
| 2026-05-06 06:10 | -6.97706 | 110.38089 | 53 ft | 1 kts | 249° |
| 2026-05-06 06:11 | -6.97697 | 110.38068 | 53 ft | 4 kts | 297° |
| 2026-05-06 06:11 | -6.97675 | 110.38033 | 53 ft | 7 kts | 305° |
| 2026-05-06 06:11 | -6.97635 | 110.37987 | 53 ft | 10 kts | 311° |
| 2026-05-06 06:11 | -6.97583 | 110.37928 | 53 ft | 12 kts | 311° |
| 2026-05-06 06:12 | -6.97518 | 110.37856 | 53 ft | 14 kts | 312° |
| 2026-05-06 06:12 | -6.97444 | 110.37773 | 53 ft | 16 kts | 312° |
| 2026-05-06 06:12 | -6.97366 | 110.37676 | 53 ft | 18 kts | 311° |
| 2026-05-06 06:12 | -6.97279 | 110.37576 | 53 ft | 19 kts | 311° |
| 2026-05-06 06:13 | -6.97192 | 110.37468 | 53 ft | 12 kts | 306° |
| 2026-05-06 06:13 | -6.97146 | 110.37420 | 53 ft | 9 kts | 339° |
| 2026-05-06 06:13 | -6.97078 | 110.37437 | 53 ft | 11 kts | 38° |
| 2026-05-06 06:13 | -6.97011 | 110.37490 | 53 ft | 13 kts | 40° |
| 2026-05-06 06:14 | -6.96940 | 110.37553 | 53 ft | 8 kts | 42° |
| 2026-05-06 06:14 | -6.96904 | 110.37552 | 53 ft | 6 kts | 311° |
| 2026-05-06 06:14 | -6.96868 | 110.37511 | 53 ft | 8 kts | 311° |
| 2026-05-06 06:14 | -6.96829 | 110.37464 | 53 ft | 8 kts | 311° |
| 2026-05-06 06:15 | -6.96800 | 110.37450 | 53 ft | 4 kts | 20° |
| 2026-05-06 06:15 | -6.96774 | 110.37470 | 53 ft | 4 kts | 39° |
| 2026-05-06 06:15 | -6.96756 | 110.37485 | 53 ft | 2 kts | 38° |
| 2026-05-06 06:15 | -6.96751 | 110.37489 | 53 ft | 0 kts | 38° |